TimeCDT,TemperatureF,Dew PointF,Humidity,Sea Level PressureIn,VisibilityMPH,Wind Direction,Wind SpeedMPH,Gust SpeedMPH,PrecipitationIn,Events,Conditions,WindDirDegrees,DateUTC
12:15 AM,56.3,55.9,99,30.08,7.0,Calm,Calm,-,N/A,,Scattered Clouds,0,2013-09-30 05:15:00
12:35 AM,55.6,55.6,100,30.08,5.0,Calm,Calm,-,N/A,,Mostly Cloudy,0,2013-09-30 05:35:00
12:55 AM,56.3,56.3,100,30.08,2.0,Calm,Calm,-,N/A,,Overcast,0,2013-09-30 05:55:00
1:15 AM,56.5,56.5,100,30.08,2.5,Calm,Calm,-,N/A,,Overcast,0,2013-09-30 06:15:00
1:35 AM,56.5,56.3,99,30.08,10.0,Calm,Calm,-,N/A,,Overcast,0,2013-09-30 06:35:00
1:55 AM,56.5,56.5,100,30.08,2.5,Calm,Calm,-,N/A,,Overcast,0,2013-09-30 06:55:00
2:15 AM,56.3,56.1,99,30.07,5.0,Calm,Calm,-,N/A,,Overcast,0,2013-09-30 07:15:00
2:35 AM,56.5,56.5,100,30.07,0.8,Calm,Calm,-,N/A,,Overcast,0,2013-09-30 07:35:00
2:55 AM,56.5,56.5,100,30.07,0.8,Calm,Calm,-,N/A,,Overcast,0,2013-09-30 07:55:00
3:15 AM,56.3,56.3,100,30.07,2.5,Calm,Calm,-,N/A,,Overcast,0,2013-09-30 08:15:00
3:35 AM,56.3,56.3,100,30.08,0.8,Calm,Calm,-,N/A,,Overcast,0,2013-09-30 08:35:00
3:55 AM,55.8,55.8,100,30.08,1.8,Calm,Calm,-,N/A,,Overcast,0,2013-09-30 08:55:00
4:15 AM,55.8,55.8,100,30.09,1.8,Calm,Calm,-,N/A,,Overcast,0,2013-09-30 09:15:00
4:35 AM,55.9,55.9,100,30.09,1.2,Calm,Calm,-,N/A,,Overcast,0,2013-09-30 09:35:00
4:55 AM,55.8,55.8,100,30.09,0.8,Calm,Calm,-,N/A,,Overcast,0,2013-09-30 09:55:00
5:15 AM,55.8,55.8,100,30.09,0.8,Calm,Calm,-,N/A,,Overcast,0,2013-09-30 10:15:00
5:35 AM,55.4,55.4,100,30.10,0.5,Calm,Calm,-,N/A,Fog,Fog,0,2013-09-30 10:35:00
5:55 AM,55.4,55.4,100,30.10,1.8,Calm,Calm,-,N/A,,Overcast,0,2013-09-30 10:55:00
6:15 AM,55.4,55.4,100,30.11,0.5,Calm,Calm,-,N/A,Fog,Fog,0,2013-09-30 11:15:00
6:35 AM,55.4,55.4,100,30.11,0.5,Calm,Calm,-,N/A,Fog,Fog,0,2013-09-30 11:35:00
6:55 AM,54.9,54.9,100,30.11,3.0,Calm,Calm,-,N/A,,Overcast,0,2013-09-30 11:55:00
7:15 AM,55.0,55.0,100,30.12,2.0,Calm,Calm,-,N/A,,Overcast,0,2013-09-30 12:15:00
7:35 AM,55.4,55.2,99,30.12,2.5,Calm,Calm,-,N/A,,Overcast,0,2013-09-30 12:35:00
7:55 AM,55.2,54.7,98,30.12,7.0,Calm,Calm,-,N/A,,Overcast,0,2013-09-30 12:55:00
8:15 AM,55.8,55.8,100,30.12,0.2,Calm,Calm,-,N/A,Fog,Fog,0,2013-09-30 13:15:00
8:35 AM,55.8,55.8,100,30.12,0.5,Calm,Calm,-,N/A,Fog,Fog,0,2013-09-30 13:35:00
8:55 AM,56.5,56.3,99,30.12,1.0,Calm,Calm,-,N/A,,Overcast,0,2013-09-30 13:55:00
9:15 AM,57.9,56.8,96,30.12,4.0,Calm,Calm,-,N/A,,Overcast,0,2013-09-30 14:15:00
9:35 AM,58.5,57.4,96,30.12,5.0,Calm,Calm,-,N/A,,Overcast,0,2013-09-30 14:35:00
9:55 AM,59.9,57.7,93,30.12,5.0,Calm,Calm,-,N/A,,Mostly Cloudy,0,2013-09-30 14:55:00
10:15 AM,61.7,58.3,89,30.11,5.0,Calm,Calm,-,N/A,,Scattered Clouds,0,2013-09-30 15:15:00
10:35 AM,65.7,59.9,82,30.10,10.0,Calm,Calm,-,N/A,,Scattered Clouds,0,2013-09-30 15:35:00
10:55 AM,68.5,60.3,75,30.10,10.0,Calm,Calm,-,N/A,,Clear,0,2013-09-30 15:55:00
11:15 AM,71.1,56.8,61,30.09,10.0,South,6.9,-,N/A,,Clear,190,2013-09-30 16:15:00
11:35 AM,71.2,56.7,60,30.09,10.0,SSE,8.1,-,N/A,,Clear,160,2013-09-30 16:35:00
11:55 AM,72.9,57.4,58,30.08,10.0,South,8.1,-,N/A,,Clear,170,2013-09-30 16:55:00
12:15 PM,72.1,57.4,60,30.07,10.0,South,10.4,-,N/A,,Clear,170,2013-09-30 17:15:00
12:35 PM,73.4,57.7,58,30.07,10.0,South,8.1,-,N/A,,Clear,170,2013-09-30 17:35:00
12:55 PM,73.2,57.6,58,30.06,10.0,South,8.1,-,N/A,,Clear,170,2013-09-30 17:55:00
1:15 PM,73.6,57.4,57,30.05,10.0,South,8.1,-,N/A,,Scattered Clouds,170,2013-09-30 18:15:00
1:35 PM,74.3,55.8,52,30.05,10.0,SSW,6.9,-,N/A,,Scattered Clouds,200,2013-09-30 18:35:00
1:55 PM,73.8,55.8,53,30.04,10.0,SSW,5.8,-,N/A,,Mostly Cloudy,200,2013-09-30 18:55:00
2:15 PM,74.7,54.7,50,30.03,10.0,South,5.8,-,N/A,,Overcast,190,2013-09-30 19:15:00
2:35 PM,76.1,52.5,44,30.03,10.0,South,8.1,-,N/A,,Mostly Cloudy,190,2013-09-30 19:35:00
2:55 PM,76.3,52.7,44,30.02,10.0,SSW,4.6,-,N/A,,Scattered Clouds,200,2013-09-30 19:55:00
3:15 PM,75.6,53.2,46,30.02,10.0,South,6.9,-,N/A,,Clear,190,2013-09-30 20:15:00
3:35 PM,75.2,53.6,47,30.02,10.0,SSW,4.6,-,N/A,,Clear,210,2013-09-30 20:35:00
3:55 PM,74.7,53.4,47,30.02,10.0,SSW,5.8,-,N/A,,Clear,210,2013-09-30 20:55:00
4:15 PM,71.6,56.5,59,30.02,10.0,WSW,3.5,-,N/A,,Scattered Clouds,240,2013-09-30 21:15:00
4:35 PM,70.9,58.1,64,30.03,10.0,Calm,Calm,-,N/A,,Scattered Clouds,0,2013-09-30 21:35:00
4:55 PM,70.5,59.2,67,30.03,10.0,Calm,Calm,-,N/A,,Scattered Clouds,0,2013-09-30 21:55:00
5:15 PM,69.1,60.6,74,30.03,10.0,West,3.5,-,N/A,,Scattered Clouds,270,2013-09-30 22:15:00
5:35 PM,68.0,60.3,76,30.04,10.0,Calm,Calm,-,N/A,,Mostly Cloudy,0,2013-09-30 22:35:00
5:55 PM,67.5,60.3,78,30.05,10.0,Calm,Calm,-,N/A,,Overcast,0,2013-09-30 22:55:00
6:15 PM,67.1,60.4,79,30.05,10.0,Calm,Calm,-,N/A,,Overcast,0,2013-09-30 23:15:00
6:35 PM,66.2,60.3,81,30.05,10.0,Calm,Calm,-,N/A,,Overcast,0,2013-09-30 23:35:00
6:55 PM,65.3,59.9,83,30.06,10.0,WSW,3.5,-,N/A,,Scattered Clouds,240,2013-09-30 23:55:00
7:15 PM,64.2,59.4,84,30.06,10.0,WSW,4.6,-,N/A,,Clear,250,2013-10-01 00:15:00
7:35 PM,62.4,58.6,87,30.07,10.0,Calm,Calm,-,N/A,,Clear,0,2013-10-01 00:35:00
7:55 PM,62.1,57.9,86,30.07,10.0,Calm,Calm,-,N/A,,Clear,0,2013-10-01 00:55:00
8:15 PM,61.2,57.7,88,30.08,10.0,Calm,Calm,-,N/A,,Clear,0,2013-10-01 01:15:00
8:35 PM,60.8,57.2,88,30.08,10.0,Calm,Calm,-,N/A,,Clear,0,2013-10-01 01:35:00
8:55 PM,59.9,56.8,90,30.09,10.0,Calm,Calm,-,N/A,,Clear,0,2013-10-01 01:55:00
9:15 PM,59.0,56.5,91,30.09,10.0,Calm,Calm,-,N/A,,Clear,0,2013-10-01 02:15:00
9:35 PM,58.5,56.3,93,30.10,10.0,Calm,Calm,-,N/A,,Clear,0,2013-10-01 02:35:00
9:55 PM,57.9,56.3,94,30.10,10.0,Calm,Calm,-,N/A,,Clear,0,2013-10-01 02:55:00
10:15 PM,57.2,56.3,97,30.10,10.0,Calm,Calm,-,N/A,,Clear,0,2013-10-01 03:15:00
10:35 PM,56.7,55.9,97,30.10,10.0,Calm,Calm,-,N/A,,Clear,0,2013-10-01 03:35:00
10:55 PM,56.5,55.6,97,30.10,10.0,Calm,Calm,-,N/A,,Clear,0,2013-10-01 03:55:00
11:15 PM,55.8,55.4,99,30.10,10.0,Calm,Calm,-,N/A,,Scattered Clouds,0,2013-10-01 04:15:00
11:35 PM,56.5,55.4,96,30.10,10.0,Calm,Calm,-,N/A,,Mostly Cloudy,0,2013-10-01 04:35:00
11:55 PM,56.5,55.6,97,30.10,10.0,Calm,Calm,-,N/A,,Overcast,0,2013-10-01 04:55:00